Yuedian 58 — BYFE — position and weather

sailwx.info

Track history (hours):
 
Tides and Currents Weather Stations Pressure Air Temp Water Temp Dewpoint Dewpoint Depression Visibility Wind Speed Wind Dir Waves Ship Positions

Yuedian 58

Last reported at 2018-Feb-16 14:41 UTC. Time now 2018-Feb-20 03:52 UTC.
Position N 24°19' E 118°41'.

Length 190 m; draft 8.5 m.

Type: Ship. MMSI: 414008000.

Date/timePositionNaut miles runAvg speedWind from/ knotsBaromVisibWave heightAir tempDewpointWater temp
2018-Feb-16 14:41N 24°19' E 118°41'212.0
2018-Feb-16 14:30N 24°18' E 118°40'712.4
2018-Feb-16 13:55N 24°13' E 118°34'612.6
2018-Feb-16 13:25N 24°08' E 118°29'613.3
2018-Feb-16 12:56N 24°04' E 118°23'613.3
2018-Feb-16 12:30N 24°00' E 118°19'713.4
2018-Feb-16 12:00N 23°56' E 118°13'1413.2
2018-Feb-16 10:57N 23°46' E 118°02'1012.6
2018-Feb-16 10:10N 23°39' E 117°55'212.1
2018-Feb-16 10:00N 23°38' E 117°53'611.7
2018-Feb-16 09:30N 23°34' E 117°49'611.7
2018-Feb-16 09:00N 23°30' E 117°44'611.3
2018-Feb-16 08:31N 23°26' E 117°39'  
2018-Feb-11 13:50N 23°13' E 117°22'512.7
2018-Feb-11 13:28N 23°17' E 117°26'612.3
2018-Feb-11 13:00N 23°20' E 117°31'612.1
2018-Feb-11 12:30N 23°24' E 117°35'611.9
2018-Feb-11 12:00N 23°28' E 117°40'611.7
2018-Feb-11 11:30N 23°32' E 117°45'611.8
2018-Feb-11 10:58N 23°36' E 117°50'611.6
2018-Feb-11 10:29N 23°40' E 117°55'612.0
2018-Feb-11 10:00N 23°44' E 117°59'612.4
2018-Feb-11 09:30N 23°48' E 118°04'611.8
2018-Feb-11 09:00N 23°52' E 118°09'611.9
2018-Feb-11 08:29N 23°56' E 118°14'612.4
2018-Feb-11 08:00N 24°00' E 118°19'612.4
2018-Feb-11 07:30N 24°04' E 118°24'612.6
2018-Feb-11 07:00N 24°09' E 118°29'612.6
2018-Feb-11 06:30N 24°13' E 118°34'613.0
2018-Feb-11 06:00N 24°17' E 118°40'  
Track history (hours):
 
Tides and Currents Weather Stations Pressure Air Temp Water Temp Dewpoint Dewpoint Depression Visibility Wind Speed Wind Dir Waves Ship Positions

Yuedian 58

Last reported at 2018-Feb-16 14:41 UTC. Time now 2018-Feb-20 03:52 UTC.
Position N 24°19' E 118°41'.

Length 190 m; draft 8.5 m.

Type: Ship. MMSI: 414008000.

Date/timePositionNaut miles runAvg speedWind from/ knotsBaromVisibWave heightAir tempDewpointWater temp
2018-Feb-16 14:41N 24°19' E 118°41'212.0
2018-Feb-16 14:30N 24°18' E 118°40'712.4
2018-Feb-16 13:55N 24°13' E 118°34'612.6
2018-Feb-16 13:25N 24°08' E 118°29'613.3
2018-Feb-16 12:56N 24°04' E 118°23'613.3
2018-Feb-16 12:30N 24°00' E 118°19'713.4
2018-Feb-16 12:00N 23°56' E 118°13'1413.2
2018-Feb-16 10:57N 23°46' E 118°02'1012.6
2018-Feb-16 10:10N 23°39' E 117°55'212.1
2018-Feb-16 10:00N 23°38' E 117°53'611.7
2018-Feb-16 09:30N 23°34' E 117°49'611.7
2018-Feb-16 09:00N 23°30' E 117°44'611.3
2018-Feb-16 08:31N 23°26' E 117°39'  
2018-Feb-11 13:50N 23°13' E 117°22'512.7
2018-Feb-11 13:28N 23°17' E 117°26'612.3
2018-Feb-11 13:00N 23°20' E 117°31'612.1
2018-Feb-11 12:30N 23°24' E 117°35'611.9
2018-Feb-11 12:00N 23°28' E 117°40'611.7
2018-Feb-11 11:30N 23°32' E 117°45'611.8
2018-Feb-11 10:58N 23°36' E 117°50'611.6
2018-Feb-11 10:29N 23°40' E 117°55'612.0
2018-Feb-11 10:00N 23°44' E 117°59'612.4
2018-Feb-11 09:30N 23°48' E 118°04'611.8
2018-Feb-11 09:00N 23°52' E 118°09'611.9
2018-Feb-11 08:29N 23°56' E 118°14'612.4
2018-Feb-11 08:00N 24°00' E 118°19'612.4
2018-Feb-11 07:30N 24°04' E 118°24'612.6
2018-Feb-11 07:00N 24°09' E 118°29'612.6
2018-Feb-11 06:30N 24°13' E 118°34'613.0
2018-Feb-11 06:00N 24°17' E 118°40'  

Dump ship's entire track history